sensor_id;sensor_type;location;lat;lon;timestamp;temperature;humidity
61641;HTU21D;62201;49.966;8.342;2023-02-01T00:01:31;6.09;104.49
61641;HTU21D;62201;49.966;8.342;2023-02-01T00:03:57;6.08;104.57
61641;HTU21D;62201;49.966;8.342;2023-02-01T00:06:22;6.06;105.49
61641;HTU21D;62201;49.966;8.342;2023-02-01T00:08:47;6.08;105.34
61641;HTU21D;62201;49.966;8.342;2023-02-01T00:11:13;6.07;105.51
61641;HTU21D;62201;49.966;8.342;2023-02-01T00:13:41;6.05;105.88
61641;HTU21D;62201;49.966;8.342;2023-02-01T00:16:10;6.01;106.76
61641;HTU21D;62201;49.966;8.342;2023-02-01T00:18:37;5.94;107.66
61641;HTU21D;62201;49.966;8.342;2023-02-01T00:21:03;5.89;108.38
61641;HTU21D;62201;49.966;8.342;2023-02-01T00:23:28;5.84;108.88
61641;HTU21D;62201;49.966;8.342;2023-02-01T00:25:53;5.83;109.17
61641;HTU21D;62201;49.966;8.342;2023-02-01T00:28:19;5.78;109.68
61641;HTU21D;62201;49.966;8.342;2023-02-01T00:30:44;5.74;110.24
61641;HTU21D;62201;49.966;8.342;2023-02-01T00:33:10;5.70;110.56
61641;HTU21D;62201;49.966;8.342;2023-02-01T00:35:35;5.66;110.71
61641;HTU21D;62201;49.966;8.342;2023-02-01T00:38:00;5.65;110.85
61641;HTU21D;62201;49.966;8.342;2023-02-01T00:40:26;5.67;111.00
61641;HTU21D;62201;49.966;8.342;2023-02-01T00:42:52;5.68;110.94
61641;HTU21D;62201;49.966;8.342;2023-02-01T00:45:18;5.67;110.96
61641;HTU21D;62201;49.966;8.342;2023-02-01T00:47:43;5.68;110.98
61641;HTU21D;62201;49.966;8.342;2023-02-01T00:50:09;5.68;110.47
61641;HTU21D;62201;49.966;8.342;2023-02-01T00:52:35;5.70;110.46
61641;HTU21D;62201;49.966;8.342;2023-02-01T00:55:00;5.71;109.61
61641;HTU21D;62201;49.966;8.342;2023-02-01T00:57:25;5.72;109.17
61641;HTU21D;62201;49.966;8.342;2023-02-01T00:59:51;5.75;108.85
61641;HTU21D;62201;49.966;8.342;2023-02-01T01:02:16;5.74;109.06
61641;HTU21D;62201;49.966;8.342;2023-02-01T01:04:41;5.80;108.08
61641;HTU21D;62201;49.966;8.342;2023-02-01T01:07:07;5.92;107.59
61641;HTU21D;62201;49.966;8.342;2023-02-01T01:09:32;5.92;107.15
61641;HTU21D;62201;49.966;8.342;2023-02-01T01:11:58;5.87;108.20
61641;HTU21D;62201;49.966;8.342;2023-02-01T01:14:28;5.86;109.15
61641;HTU21D;62201;49.966;8.342;2023-02-01T01:16:53;5.82;109.47
61641;HTU21D;62201;49.966;8.342;2023-02-01T01:19:18;5.80;111.13
61641;HTU21D;62201;49.966;8.342;2023-02-01T01:21:44;5.71;112.97
61641;HTU21D;62201;49.966;8.342;2023-02-01T01:24:09;5.71;112.62
61641;HTU21D;62201;49.966;8.342;2023-02-01T01:26:35;5.69;113.56
61641;HTU21D;62201;49.966;8.342;2023-02-01T01:29:00;5.68;113.93
61641;HTU21D;62201;49.966;8.342;2023-02-01T01:31:26;5.69;114.17
61641;HTU21D;62201;49.966;8.342;2023-02-01T01:33:53;5.70;114.53
61641;HTU21D;62201;49.966;8.342;2023-02-01T01:36:20;5.69;115.17
61641;HTU21D;62201;49.966;8.342;2023-02-01T01:38:46;5.67;115.89
61641;HTU21D;62201;49.966;8.342;2023-02-01T01:41:18;5.70;115.62
61641;HTU21D;62201;49.966;8.342;2023-02-01T01:46:30;5.68;116.70
61641;HTU21D;62201;49.966;8.342;2023-02-01T01:49:13;5.69;117.28
61641;HTU21D;62201;49.966;8.342;2023-02-01T01:51:46;5.70;117.78
61641;HTU21D;62201;49.966;8.342;2023-02-01T01:54:20;5.68;118.15
61641;HTU21D;62201;49.966;8.342;2023-02-01T01:56:53;5.70;118.69
61641;HTU21D;62201;49.966;8.342;2023-02-01T01:59:21;5.68;118.99
61641;HTU21D;62201;49.966;8.342;2023-02-01T02:01:47;5.70;118.99
61641;HTU21D;62201;49.966;8.342;2023-02-01T02:04:12;5.69;118.99
61641;HTU21D;62201;49.966;8.342;2023-02-01T02:06:43;5.70;118.99
61641;HTU21D;62201;49.966;8.342;2023-02-01T02:09:13;5.66;118.99
61641;HTU21D;62201;49.966;8.342;2023-02-01T02:11:39;5.65;118.99
61641;HTU21D;62201;49.966;8.342;2023-02-01T02:14:06;5.61;118.99
61641;HTU21D;62201;49.966;8.342;2023-02-01T02:19:39;5.57;118.99
61641;HTU21D;62201;49.966;8.342;2023-02-01T02:28:30;5.59;118.99
61641;HTU21D;62201;49.966;8.342;2023-02-01T02:33:52;5.62;118.99
61641;HTU21D;62201;49.966;8.342;2023-02-01T02:42:20;5.68;118.99
61641;HTU21D;62201;49.966;8.342;2023-02-01T02:48:24;5.69;118.99
61641;HTU21D;62201;49.966;8.342;2023-02-01T02:51:07;5.70;118.99
61641;HTU21D;62201;49.966;8.342;2023-02-01T02:56:42;5.67;118.99
61641;HTU21D;62201;49.966;8.342;2023-02-01T02:59:28;5.64;118.99
61641;HTU21D;62201;49.966;8.342;2023-02-01T03:02:13;5.63;118.99
61641;HTU21D;62201;49.966;8.342;2023-02-01T03:04:58;5.63;118.99
61641;HTU21D;62201;49.966;8.342;2023-02-01T03:07:49;5.65;118.99
61641;HTU21D;62201;49.966;8.342;2023-02-01T03:10:49;5.66;118.99
61641;HTU21D;62201;49.966;8.342;2023-02-01T03:16:09;5.70;118.99
61641;HTU21D;62201;49.966;8.342;2023-02-01T03:19:02;5.70;118.99
61641;HTU21D;62201;49.966;8.342;2023-02-01T03:21:40;5.74;118.99
61641;HTU21D;62201;49.966;8.342;2023-02-01T03:24:10;5.75;118.99
61641;HTU21D;62201;49.966;8.342;2023-02-01T03:26:38;5.75;118.99
61641;HTU21D;62201;49.966;8.342;2023-02-01T03:29:10;5.72;118.99
61641;HTU21D;62201;49.966;8.342;2023-02-01T03:31:37;5.71;118.99
61641;HTU21D;62201;49.966;8.342;2023-02-01T03:34:03;5.68;118.99
61641;HTU21D;62201;49.966;8.342;2023-02-01T03:39:05;5.64;118.99
61641;HTU21D;62201;49.966;8.342;2023-02-01T03:44:23;5.63;118.99
61641;HTU21D;62201;49.966;8.342;2023-02-01T03:46:53;5.60;118.99
61641;HTU21D;62201;49.966;8.342;2023-02-01T03:49:44;5.57;118.99
61641;HTU21D;62201;49.966;8.342;2023-02-01T03:52:16;5.59;118.99
61641;HTU21D;62201;49.966;8.342;2023-02-01T03:54:43;5.63;118.99
61641;HTU21D;62201;49.966;8.342;2023-02-01T03:57:13;5.61;118.99
61641;HTU21D;62201;49.966;8.342;2023-02-01T03:59:41;5.56;118.99
61641;HTU21D;62201;49.966;8.342;2023-02-01T04:02:07;5.60;118.99
61641;HTU21D;62201;49.966;8.342;2023-02-01T04:04:34;5.61;118.99
61641;HTU21D;62201;49.966;8.342;2023-02-01T04:07:00;5.62;118.99
61641;HTU21D;62201;49.966;8.342;2023-02-01T04:09:25;5.59;118.99
61641;HTU21D;62201;49.966;8.342;2023-02-01T04:11:51;5.61;118.99
61641;HTU21D;62201;49.966;8.342;2023-02-01T04:14:16;5.62;118.99
61641;HTU21D;62201;49.966;8.342;2023-02-01T04:16:42;5.64;118.99
61641;HTU21D;62201;49.966;8.342;2023-02-01T04:19:07;5.63;118.99
61641;HTU21D;62201;49.966;8.342;2023-02-01T04:21:32;5.63;118.99
61641;HTU21D;62201;49.966;8.342;2023-02-01T04:23:58;5.62;118.99
61641;HTU21D;62201;49.966;8.342;2023-02-01T04:26:23;5.67;118.99
61641;HTU21D;62201;49.966;8.342;2023-02-01T04:28:49;5.68;118.99
61641;HTU21D;62201;49.966;8.342;2023-02-01T04:31:15;5.70;118.99
61641;HTU21D;62201;49.966;8.342;2023-02-01T04:33:41;5.71;118.99
61641;HTU21D;62201;49.966;8.342;2023-02-01T04:36:06;5.74;118.99
61641;HTU21D;62201;49.966;8.342;2023-02-01T04:38:32;5.75;118.99
61641;HTU21D;62201;49.966;8.342;2023-02-01T04:40:58;5.71;118.84
61641;HTU21D;62201;49.966;8.342;2023-02-01T04:43:24;5.70;118.99
61641;HTU21D;62201;49.966;8.342;2023-02-01T04:45:50;5.75;118.63
61641;HTU21D;62201;49.966;8.342;2023-02-01T04:48:17;5.77;116.67
61641;HTU21D;62201;49.966;8.342;2023-02-01T04:50:43;5.80;116.48
61641;HTU21D;62201;49.966;8.342;2023-02-01T04:53:11;5.75;116.24
61641;HTU21D;62201;49.966;8.342;2023-02-01T04:55:36;5.75;117.15
61641;HTU21D;62201;49.966;8.342;2023-02-01T04:58:01;5.75;116.57
61641;HTU21D;62201;49.966;8.342;2023-02-01T05:00:27;5.76;116.68
61641;HTU21D;62201;49.966;8.342;2023-02-01T05:02:52;5.80;117.00
61641;HTU21D;62201;49.966;8.342;2023-02-01T05:05:18;5.79;116.02
61641;HTU21D;62201;49.966;8.342;2023-02-01T05:07:43;5.79;116.44
61641;HTU21D;62201;49.966;8.342;2023-02-01T05:10:09;5.81;117.00
61641;HTU21D;62201;49.966;8.342;2023-02-01T05:12:34;5.83;115.93
61641;HTU21D;62201;49.966;8.342;2023-02-01T05:15:18;5.80;115.79
61641;HTU21D;62201;49.966;8.342;2023-02-01T05:17:43;5.80;114.53
61641;HTU21D;62201;49.966;8.342;2023-02-01T05:20:09;5.82;114.62
61641;HTU21D;62201;49.966;8.342;2023-02-01T05:22:35;5.83;113.13
61641;HTU21D;62201;49.966;8.342;2023-02-01T05:25:00;5.87;112.58
61641;HTU21D;62201;49.966;8.342;2023-02-01T05:27:29;5.87;111.07
61641;HTU21D;62201;49.966;8.342;2023-02-01T05:29:54;5.86;111.29
61641;HTU21D;62201;49.966;8.342;2023-02-01T05:32:20;5.82;111.79
61641;HTU21D;62201;49.966;8.342;2023-02-01T05:34:45;5.79;111.58
61641;HTU21D;62201;49.966;8.342;2023-02-01T05:37:10;5.75;111.42
61641;HTU21D;62201;49.966;8.342;2023-02-01T05:39:36;5.74;110.65
61641;HTU21D;62201;49.966;8.342;2023-02-01T05:42:01;5.69;111.27
61641;HTU21D;62201;49.966;8.342;2023-02-01T05:44:27;5.66;110.81
61641;HTU21D;62201;49.966;8.342;2023-02-01T05:46:52;5.64;111.00
61641;HTU21D;62201;49.966;8.342;2023-02-01T05:49:17;5.62;110.89
61641;HTU21D;62201;49.966;8.342;2023-02-01T05:51:43;5.64;111.54
61641;HTU21D;62201;49.966;8.342;2023-02-01T05:54:08;5.59;110.62
61641;HTU21D;62201;49.966;8.342;2023-02-01T05:56:34;5.52;110.60
61641;HTU21D;62201;49.966;8.342;2023-02-01T05:59:00;5.48;110.02
61641;HTU21D;62201;49.966;8.342;2023-02-01T06:01:25;5.47;110.20
61641;HTU21D;62201;49.966;8.342;2023-02-01T06:03:50;5.40;110.26
61641;HTU21D;62201;49.966;8.342;2023-02-01T06:06:16;5.39;111.22
61641;HTU21D;62201;49.966;8.342;2023-02-01T06:08:41;5.35;111.39
61641;HTU21D;62201;49.966;8.342;2023-02-01T06:11:07;5.31;111.43
61641;HTU21D;62201;49.966;8.342;2023-02-01T06:13:32;5.22;111.42
61641;HTU21D;62201;49.966;8.342;2023-02-01T06:15:58;5.16;111.78
61641;HTU21D;62201;49.966;8.342;2023-02-01T06:18:24;5.11;112.42
61641;HTU21D;62201;49.966;8.342;2023-02-01T06:20:54;5.23;110.13
61641;HTU21D;62201;49.966;8.342;2023-02-01T06:23:20;5.30;108.65
61641;HTU21D;62201;49.966;8.342;2023-02-01T06:25:52;5.31;108.31
61641;HTU21D;62201;49.966;8.342;2023-02-01T06:28:18;5.27;108.17
61641;HTU21D;62201;49.966;8.342;2023-02-01T06:30:43;5.40;106.01
61641;HTU21D;62201;49.966;8.342;2023-02-01T06:33:12;5.46;105.89
61641;HTU21D;62201;49.966;8.342;2023-02-01T06:35:40;5.46;105.64
61641;HTU21D;62201;49.966;8.342;2023-02-01T06:38:07;5.42;104.87
61641;HTU21D;62201;49.966;8.342;2023-02-01T06:40:32;5.46;105.22
61641;HTU21D;62201;49.966;8.342;2023-02-01T06:42:57;5.51;103.95
61641;HTU21D;62201;49.966;8.342;2023-02-01T06:45:23;5.53;102.22
61641;HTU21D;62201;49.966;8.342;2023-02-01T06:47:48;5.53;101.48
61641;HTU21D;62201;49.966;8.342;2023-02-01T06:50:14;5.54;100.65
61641;HTU21D;62201;49.966;8.342;2023-02-01T06:52:40;5.60;100.01
61641;HTU21D;62201;49.966;8.342;2023-02-01T06:55:05;5.56;98.51
61641;HTU21D;62201;49.966;8.342;2023-02-01T06:57:31;5.61;95.93
61641;HTU21D;62201;49.966;8.342;2023-02-01T06:59:58;5.66;94.53
61641;HTU21D;62201;49.966;8.342;2023-02-01T07:02:23;5.68;94.52
61641;HTU21D;62201;49.966;8.342;2023-02-01T07:04:49;5.76;93.87
61641;HTU21D;62201;49.966;8.342;2023-02-01T07:07:14;5.68;93.99
61641;HTU21D;62201;49.966;8.342;2023-02-01T07:09:40;5.67;92.35
61641;HTU21D;62201;49.966;8.342;2023-02-01T07:12:05;5.67;93.13
61641;HTU21D;62201;49.966;8.342;2023-02-01T07:14:31;5.66;92.72
61641;HTU21D;62201;49.966;8.342;2023-02-01T07:16:56;5.66;93.33
61641;HTU21D;62201;49.966;8.342;2023-02-01T07:19:21;5.63;94.17
61641;HTU21D;62201;49.966;8.342;2023-02-01T07:21:47;5.57;94.88
61641;HTU21D;62201;49.966;8.342;2023-02-01T07:24:12;5.61;94.62
61641;HTU21D;62201;49.966;8.342;2023-02-01T07:26:39;5.60;95.24
61641;HTU21D;62201;49.966;8.342;2023-02-01T07:29:05;5.57;95.47
61641;HTU21D;62201;49.966;8.342;2023-02-01T07:31:30;5.54;95.51
61641;HTU21D;62201;49.966;8.342;2023-02-01T07:33:55;5.49;96.13
61641;HTU21D;62201;49.966;8.342;2023-02-01T07:36:22;5.55;95.75
61641;HTU21D;62201;49.966;8.342;2023-02-01T07:38:48;5.57;95.74
61641;HTU21D;62201;49.966;8.342;2023-02-01T07:41:14;5.56;97.14
61641;HTU21D;62201;49.966;8.342;2023-02-01T07:43:40;5.60;95.69
61641;HTU21D;62201;49.966;8.342;2023-02-01T07:46:06;5.55;96.94
61641;HTU21D;62201;49.966;8.342;2023-02-01T07:48:32;5.59;96.27
61641;HTU21D;62201;49.966;8.342;2023-02-01T07:51:01;5.62;96.52
61641;HTU21D;62201;49.966;8.342;2023-02-01T07:53:28;5.68;95.96
61641;HTU21D;62201;49.966;8.342;2023-02-01T07:55:54;5.72;95.19
61641;HTU21D;62201;49.966;8.342;2023-02-01T07:58:21;5.81;94.13
61641;HTU21D;62201;49.966;8.342;2023-02-01T08:00:46;5.84;93.95
61641;HTU21D;62201;49.966;8.342;2023-02-01T08:03:30;5.95;91.81
61641;HTU21D;62201;49.966;8.342;2023-02-01T08:05:55;5.98;92.27
61641;HTU21D;62201;49.966;8.342;2023-02-01T08:08:21;6.08;90.41
61641;HTU21D;62201;49.966;8.342;2023-02-01T08:10:47;6.15;90.07
61641;HTU21D;62201;49.966;8.342;2023-02-01T08:13:12;6.15;89.99
61641;HTU21D;62201;49.966;8.342;2023-02-01T08:15:37;6.30;88.49
61641;HTU21D;62201;49.966;8.342;2023-02-01T08:18:03;6.43;85.02
61641;HTU21D;62201;49.966;8.342;2023-02-01T08:20:29;6.45;87.03
61641;HTU21D;62201;49.966;8.342;2023-02-01T08:22:55;6.46;85.45
61641;HTU21D;62201;49.966;8.342;2023-02-01T08:25:21;6.50;84.29
61641;HTU21D;62201;49.966;8.342;2023-02-01T08:27:46;6.57;82.14
61641;HTU21D;62201;49.966;8.342;2023-02-01T08:30:12;6.63;83.60
61641;HTU21D;62201;49.966;8.342;2023-02-01T08:32:38;6.68;82.09
61641;HTU21D;62201;49.966;8.342;2023-02-01T08:35:04;6.78;81.19
61641;HTU21D;62201;49.966;8.342;2023-02-01T08:37:30;6.91;78.72
61641;HTU21D;62201;49.966;8.342;2023-02-01T08:39:55;7.05;79.64
61641;HTU21D;62201;49.966;8.342;2023-02-01T08:42:21;7.11;77.94
61641;HTU21D;62201;49.966;8.342;2023-02-01T08:45:05;7.16;77.67
61641;HTU21D;62201;49.966;8.342;2023-02-01T08:47:33;7.15;78.52
61641;HTU21D;62201;49.966;8.342;2023-02-01T08:49:59;7.14;79.17
61641;HTU21D;62201;49.966;8.342;2023-02-01T08:52:24;7.18;79.89
61641;HTU21D;62201;49.966;8.342;2023-02-01T08:54:49;7.15;78.95
61641;HTU21D;62201;49.966;8.342;2023-02-01T08:57:15;7.19;77.92
61641;HTU21D;62201;49.966;8.342;2023-02-01T08:59:40;7.24;76.73
61641;HTU21D;62201;49.966;8.342;2023-02-01T09:02:08;7.30;78.60
61641;HTU21D;62201;49.966;8.342;2023-02-01T09:04:34;7.32;76.86
61641;HTU21D;62201;49.966;8.342;2023-02-01T09:07:00;7.31;76.75
61641;HTU21D;62201;49.966;8.342;2023-02-01T09:09:27;7.28;78.21
61641;HTU21D;62201;49.966;8.342;2023-02-01T09:11:53;7.24;76.37
61641;HTU21D;62201;49.966;8.342;2023-02-01T09:14:18;7.18;75.12
61641;HTU21D;62201;49.966;8.342;2023-02-01T09:16:44;7.12;76.09
61641;HTU21D;62201;49.966;8.342;2023-02-01T09:19:09;7.16;74.76
61641;HTU21D;62201;49.966;8.342;2023-02-01T09:21:35;7.13;75.69
61641;HTU21D;62201;49.966;8.342;2023-02-01T09:24:00;7.11;76.13
61641;HTU21D;62201;49.966;8.342;2023-02-01T09:26:26;7.18;76.47
61641;HTU21D;62201;49.966;8.342;2023-02-01T09:28:52;7.16;77.23
61641;HTU21D;62201;49.966;8.342;2023-02-01T09:31:18;7.18;75.87
61641;HTU21D;62201;49.966;8.342;2023-02-01T09:33:43;7.26;76.08
61641;HTU21D;62201;49.966;8.342;2023-02-01T09:36:09;7.29;75.70
61641;HTU21D;62201;49.966;8.342;2023-02-01T09:38:34;7.31;74.41
61641;HTU21D;62201;49.966;8.342;2023-02-01T09:41:00;7.29;74.80
61641;HTU21D;62201;49.966;8.342;2023-02-01T09:44:12;7.39;73.15
61641;HTU21D;62201;49.966;8.342;2023-02-01T09:46:27;7.43;73.23
61641;HTU21D;62201;49.966;8.342;2023-02-01T09:48:55;7.46;73.59
61641;HTU21D;62201;49.966;8.342;2023-02-01T09:51:34;7.42;72.19
61641;HTU21D;62201;49.966;8.342;2023-02-01T09:56:53;7.46;72.15
61641;HTU21D;62201;49.966;8.342;2023-02-01T09:59:29;7.49;72.44
61641;HTU21D;62201;49.966;8.342;2023-02-01T10:01:56;7.47;72.99
61641;HTU21D;62201;49.966;8.342;2023-02-01T10:04:22;7.49;71.77
61641;HTU21D;62201;49.966;8.342;2023-02-01T10:21:16;7.65;71.68
61641;HTU21D;62201;49.966;8.342;2023-02-01T10:24:06;7.70;71.14
61641;HTU21D;62201;49.966;8.342;2023-02-01T10:26:37;7.70;70.81
61641;HTU21D;62201;49.966;8.342;2023-02-01T10:29:16;7.69;70.96
61641;HTU21D;62201;49.966;8.342;2023-02-01T10:31:43;7.70;72.28
61641;HTU21D;62201;49.966;8.342;2023-02-01T10:34:18;7.67;72.95
61641;HTU21D;62201;49.966;8.342;2023-02-01T10:37:18;7.61;72.17
61641;HTU21D;62201;49.966;8.342;2023-02-01T10:39:47;7.61;72.02
61641;HTU21D;62201;49.966;8.342;2023-02-01T10:42:13;7.61;72.68
61641;HTU21D;62201;49.966;8.342;2023-02-01T10:44:42;7.62;73.09
61641;HTU21D;62201;49.966;8.342;2023-02-01T10:47:09;7.70;73.82
61641;HTU21D;62201;49.966;8.342;2023-02-01T10:49:43;7.67;72.75
61641;HTU21D;62201;49.966;8.342;2023-02-01T10:52:15;7.70;72.65
61641;HTU21D;62201;49.966;8.342;2023-02-01T10:54:41;7.70;72.92
61641;HTU21D;62201;49.966;8.342;2023-02-01T10:57:24;7.65;73.38
61641;HTU21D;62201;49.966;8.342;2023-02-01T10:59:51;7.63;74.46
61641;HTU21D;62201;49.966;8.342;2023-02-01T11:02:25;7.68;73.35
61641;HTU21D;62201;49.966;8.342;2023-02-01T11:05:02;7.60;73.33
61641;HTU21D;62201;49.966;8.342;2023-02-01T11:07:28;7.60;74.21
61641;HTU21D;62201;49.966;8.342;2023-02-01T11:09:55;7.58;75.16
61641;HTU21D;62201;49.966;8.342;2023-02-01T11:12:34;7.53;74.10
61641;HTU21D;62201;49.966;8.342;2023-02-01T11:15:21;7.54;74.72
61641;HTU21D;62201;49.966;8.342;2023-02-01T11:17:49;7.54;74.12
61641;HTU21D;62201;49.966;8.342;2023-02-01T11:20:40;7.54;73.96
61641;HTU21D;62201;49.966;8.342;2023-02-01T11:23:14;7.56;74.44
61641;HTU21D;62201;49.966;8.342;2023-02-01T11:25:48;7.48;74.31
61641;HTU21D;62201;49.966;8.342;2023-02-01T11:28:14;7.49;74.35
61641;HTU21D;62201;49.966;8.342;2023-02-01T11:30:43;7.55;74.73
61641;HTU21D;62201;49.966;8.342;2023-02-01T11:33:15;7.61;74.13
61641;HTU21D;62201;49.966;8.342;2023-02-01T11:35:42;7.67;74.47
61641;HTU21D;62201;49.966;8.342;2023-02-01T11:38:26;7.74;73.69
61641;HTU21D;62201;49.966;8.342;2023-02-01T11:40:52;7.70;74.23
61641;HTU21D;62201;49.966;8.342;2023-02-01T11:43:28;7.74;73.24
61641;HTU21D;62201;49.966;8.342;2023-02-01T11:46:03;7.76;73.43
61641;HTU21D;62201;49.966;8.342;2023-02-01T11:48:41;7.82;73.99
61641;HTU21D;62201;49.966;8.342;2023-02-01T11:56:48;7.98;72.53
61641;HTU21D;62201;49.966;8.342;2023-02-01T12:04:59;7.86;72.83
61641;HTU21D;62201;49.966;8.342;2023-02-01T12:07:51;7.85;73.85
61641;HTU21D;62201;49.966;8.342;2023-02-01T12:16:02;7.98;72.89
61641;HTU21D;62201;49.966;8.342;2023-02-01T12:18:52;7.93;72.36
61641;HTU21D;62201;49.966;8.342;2023-02-01T12:32:38;8.16;70.64
61641;HTU21D;62201;49.966;8.342;2023-02-01T12:37:55;8.39;69.84
61641;HTU21D;62201;49.966;8.342;2023-02-01T12:43:13;8.35;68.89
61641;HTU21D;62201;49.966;8.342;2023-02-01T12:45:52;8.29;69.50
61641;HTU21D;62201;49.966;8.342;2023-02-01T12:48:32;8.36;69.30
61641;HTU21D;62201;49.966;8.342;2023-02-01T12:51:09;8.39;69.73
61641;HTU21D;62201;49.966;8.342;2023-02-01T12:58:58;8.66;68.04
61641;HTU21D;62201;49.966;8.342;2023-02-01T13:01:46;8.52;68.26
61641;HTU21D;62201;49.966;8.342;2023-02-01T13:04:25;8.43;68.13
61641;HTU21D;62201;49.966;8.342;2023-02-01T13:06:55;8.37;68.52
61641;HTU21D;62201;49.966;8.342;2023-02-01T13:09:40;8.35;68.68
61641;HTU21D;62201;49.966;8.342;2023-02-01T13:12:15;8.31;69.04
61641;HTU21D;62201;49.966;8.342;2023-02-01T13:14:46;8.26;68.66
61641;HTU21D;62201;49.966;8.342;2023-02-01T13:17:22;8.29;69.26
61641;HTU21D;62201;49.966;8.342;2023-02-01T13:20:15;8.26;69.92
61641;HTU21D;62201;49.966;8.342;2023-02-01T13:22:45;8.24;69.50
61641;HTU21D;62201;49.966;8.342;2023-02-01T13:27:42;8.41;68.97
61641;HTU21D;62201;49.966;8.342;2023-02-01T13:33:01;8.48;68.62
61641;HTU21D;62201;49.966;8.342;2023-02-01T13:38:14;8.57;67.51
61641;HTU21D;62201;49.966;8.342;2023-02-01T13:40:51;8.65;67.06
61641;HTU21D;62201;49.966;8.342;2023-02-01T13:43:24;8.92;67.10
61641;HTU21D;62201;49.966;8.342;2023-02-01T13:45:55;9.20;66.28
61641;HTU21D;62201;49.966;8.342;2023-02-01T13:48:33;9.22;65.46
61641;HTU21D;62201;49.966;8.342;2023-02-01T13:51:01;9.38;64.97
61641;HTU21D;62201;49.966;8.342;2023-02-01T13:53:37;9.30;65.64
61641;HTU21D;62201;49.966;8.342;2023-02-01T13:56:12;9.24;64.95
61641;HTU21D;62201;49.966;8.342;2023-02-01T13:58:41;9.20;65.84
61641;HTU21D;62201;49.966;8.342;2023-02-01T14:03:54;8.94;67.31
61641;HTU21D;62201;49.966;8.342;2023-02-01T14:11:41;8.57;66.46
61641;HTU21D;62201;49.966;8.342;2023-02-01T14:19:29;8.42;67.17
61641;HTU21D;62201;49.966;8.342;2023-02-01T14:24:54;8.47;66.75
61641;HTU21D;62201;49.966;8.342;2023-02-01T14:27:30;8.52;66.64
61641;HTU21D;62201;49.966;8.342;2023-02-01T14:30:02;8.50;67.36
61641;HTU21D;62201;49.966;8.342;2023-02-01T14:32:37;8.53;66.46
61641;HTU21D;62201;49.966;8.342;2023-02-01T14:35:17;8.61;66.70
61641;HTU21D;62201;49.966;8.342;2023-02-01T14:42:49;8.75;65.47
61641;HTU21D;62201;49.966;8.342;2023-02-01T14:47:50;8.61;67.13
61641;HTU21D;62201;49.966;8.342;2023-02-01T14:50:21;8.49;66.74
61641;HTU21D;62201;49.966;8.342;2023-02-01T14:52:51;8.45;67.47
61641;HTU21D;62201;49.966;8.342;2023-02-01T15:01:03;8.34;67.70
61641;HTU21D;62201;49.966;8.342;2023-02-01T15:03:46;8.30;68.94
61641;HTU21D;62201;49.966;8.342;2023-02-01T15:06:26;8.22;68.01
61641;HTU21D;62201;49.966;8.342;2023-02-01T15:09:14;8.18;69.56
61641;HTU21D;62201;49.966;8.342;2023-02-01T15:14:23;8.18;68.91
61641;HTU21D;62201;49.966;8.342;2023-02-01T15:16:49;8.20;69.89
61641;HTU21D;62201;49.966;8.342;2023-02-01T15:19:26;8.28;68.56
61641;HTU21D;62201;49.966;8.342;2023-02-01T15:21:54;8.32;67.99
61641;HTU21D;62201;49.966;8.342;2023-02-01T15:24:38;8.36;68.04
61641;HTU21D;62201;49.966;8.342;2023-02-01T15:27:05;8.34;68.94
61641;HTU21D;62201;49.966;8.342;2023-02-01T15:29:31;8.33;68.90
61641;HTU21D;62201;49.966;8.342;2023-02-01T15:32:00;8.33;68.65
61641;HTU21D;62201;49.966;8.342;2023-02-01T15:34:48;8.35;68.99
61641;HTU21D;62201;49.966;8.342;2023-02-01T15:37:15;8.29;69.45
61641;HTU21D;62201;49.966;8.342;2023-02-01T15:40:21;8.27;69.43
61641;HTU21D;62201;49.966;8.342;2023-02-01T15:42:52;8.27;70.08
61641;HTU21D;62201;49.966;8.342;2023-02-01T15:45:20;8.22;70.16
61641;HTU21D;62201;49.966;8.342;2023-02-01T15:47:51;8.19;70.26
61641;HTU21D;62201;49.966;8.342;2023-02-01T15:50:18;8.23;69.57
61641;HTU21D;62201;49.966;8.342;2023-02-01T15:52:46;8.24;69.88
61641;HTU21D;62201;49.966;8.342;2023-02-01T15:57:57;8.22;69.10
61641;HTU21D;62201;49.966;8.342;2023-02-01T16:00:44;8.20;69.44
61641;HTU21D;62201;49.966;8.342;2023-02-01T16:03:39;8.21;69.33
61641;HTU21D;62201;49.966;8.342;2023-02-01T16:06:09;8.18;69.58
61641;HTU21D;62201;49.966;8.342;2023-02-01T16:08:36;8.17;69.90
61641;HTU21D;62201;49.966;8.342;2023-02-01T16:13:33;8.16;69.85
61641;HTU21D;62201;49.966;8.342;2023-02-01T16:15:59;8.16;69.85
61641;HTU21D;62201;49.966;8.342;2023-02-01T16:18:24;8.18;69.47
61641;HTU21D;62201;49.966;8.342;2023-02-01T16:20:50;8.19;69.65
61641;HTU21D;62201;49.966;8.342;2023-02-01T16:23:15;8.20;68.73
61641;HTU21D;62201;49.966;8.342;2023-02-01T16:25:40;8.21;69.33
61641;HTU21D;62201;49.966;8.342;2023-02-01T16:28:06;8.15;69.81
61641;HTU21D;62201;49.966;8.342;2023-02-01T16:30:32;8.18;69.53
61641;HTU21D;62201;49.966;8.342;2023-02-01T16:32:59;8.15;69.82
61641;HTU21D;62201;49.966;8.342;2023-02-01T16:35:30;8.12;70.23
61641;HTU21D;62201;49.966;8.342;2023-02-01T16:38:09;8.05;70.65
61641;HTU21D;62201;49.966;8.342;2023-02-01T16:40:38;8.09;70.18
61641;HTU21D;62201;49.966;8.342;2023-02-01T16:43:21;8.04;70.77
61641;HTU21D;62201;49.966;8.342;2023-02-01T16:45:47;8.00;70.97
61641;HTU21D;62201;49.966;8.342;2023-02-01T16:48:34;7.89;71.46
61641;HTU21D;62201;49.966;8.342;2023-02-01T16:51:08;7.82;71.70
61641;HTU21D;62201;49.966;8.342;2023-02-01T16:53:34;7.74;72.11
61641;HTU21D;62201;49.966;8.342;2023-02-01T16:56:00;7.76;71.85
61641;HTU21D;62201;49.966;8.342;2023-02-01T16:58:26;7.77;71.69
61641;HTU21D;62201;49.966;8.342;2023-02-01T17:00:52;7.71;71.96
61641;HTU21D;62201;49.966;8.342;2023-02-01T17:03:18;7.67;72.03
61641;HTU21D;62201;49.966;8.342;2023-02-01T17:05:52;7.68;72.36
61641;HTU21D;62201;49.966;8.342;2023-02-01T17:08:34;7.69;72.00
61641;HTU21D;62201;49.966;8.342;2023-02-01T17:11:00;7.64;72.46
61641;HTU21D;62201;49.966;8.342;2023-02-01T17:13:26;7.63;72.63
61641;HTU21D;62201;49.966;8.342;2023-02-01T17:16:04;7.62;72.58
61641;HTU21D;62201;49.966;8.342;2023-02-01T17:18:33;7.67;72.18
61641;HTU21D;62201;49.966;8.342;2023-02-01T17:21:00;7.67;72.05
61641;HTU21D;62201;49.966;8.342;2023-02-01T17:23:27;7.60;72.38
61641;HTU21D;62201;49.966;8.342;2023-02-01T17:25:54;7.54;72.87
61641;HTU21D;62201;49.966;8.342;2023-02-01T17:28:19;7.46;73.53
61641;HTU21D;62201;49.966;8.342;2023-02-01T17:30:45;7.50;73.11
61641;HTU21D;62201;49.966;8.342;2023-02-01T17:33:24;7.55;73.03
61641;HTU21D;62201;49.966;8.342;2023-02-01T17:35:50;7.52;73.14
61641;HTU21D;62201;49.966;8.342;2023-02-01T17:38:16;7.53;72.86
61641;HTU21D;62201;49.966;8.342;2023-02-01T17:40:41;7.55;72.61
61641;HTU21D;62201;49.966;8.342;2023-02-01T17:43:13;7.54;72.99
61641;HTU21D;62201;49.966;8.342;2023-02-01T17:45:42;7.48;73.30
61641;HTU21D;62201;49.966;8.342;2023-02-01T17:48:14;7.46;73.60
61641;HTU21D;62201;49.966;8.342;2023-02-01T17:50:40;7.41;74.17
61641;HTU21D;62201;49.966;8.342;2023-02-01T17:53:05;7.38;74.85
61641;HTU21D;62201;49.966;8.342;2023-02-01T17:55:36;7.32;74.63
61641;HTU21D;62201;49.966;8.342;2023-02-01T17:58:02;7.24;76.17